Grandin, Florida
Current Conditions -  °F | °C
As of 12:53 AM on Wednesday 22 Oct 2014 (Local Time) from KGNV Reporting Station
Clear Clear  
Wind Chill: 62°   Ceiling: Unl
Heat Index: 62°   Visibility: 10mi
Dew Point: 61°   Wind: 3mph
Humidity: 96%   Direction: 320°NW
Pressure: 29.96"   Gusts: NA
Location:  29.73°N, 81.92°W
Report Text: KGNV 220453Z AUTO 32003KT 10SM CLR 17/16 A2996 RMK AO2 SLP144 T01670161 402830156
Loading
Personal Weather Stations






























Interactive Weather Map
Tropical Storm Tracking
New forecast layout! Learn more

10-Day Weather Forecast

Advertisements
Track Severe Weather on mobile